Time;durP1;ratioP1;P1;durP2;ratioP2;P2;SDS_P1;SDS_P2;PMS_P1;PMS_P2;Temp;Humidity;BMP_temperature;BMP_pressure;BME280_temperature;BME280_humidity;BME280_pressure;Samples;Min_cycle;Max_cycle;Signal;HPM_P1;HPM_P2
2021/04/12 00:02:04;;;;;;;8.93;6.43;;;;;;;8.07;60.71;99403.84;471587;1170;114031;-62
2021/04/12 00:12:13;;;;;;;13.65;7.80;;;;;;;7.96;61.30;99404.46;471436;1170;114659;-62
2021/04/12 00:22:22;;;;;;;8.13;6.43;;;;;;;7.79;62.19;99417.61;471379;1170;114337;-63
2021/04/12 00:32:33;;;;;;;7.70;6.55;;;;;;;7.62;62.75;99408.95;471653;1170;113813;-62
2021/04/12 00:43:01;;;;;;;8.35;5.40;;;;;;;7.47;63.42;99397.55;472179;1170;113832;-63
2021/04/12 00:53:37;;;;;;;10.27;6.93;;;;;;;7.33;64.19;99390.45;471379;1170;113709;-64
2021/04/12 01:04:01;;;;;;;8.25;6.90;;;;;;;7.18;64.34;99392.11;471366;1170;113897;-63
2021/04/12 01:15:02;;;;;;;7.50;6.10;;;;;;;7.07;65.30;99402.28;471626;1170;113971;-62
2021/04/12 01:25:38;;;;;;;9.10;6.87;;;;;;;6.94;65.40;99395.09;471376;1170;113898;-63
2021/04/12 01:36:26;;;;;;;9.27;7.17;;;;;;;6.82;65.96;99395.73;471089;1171;113693;-63
2021/04/12 01:46:36;;;;;;;13.48;7.93;;;;;;;6.70;66.69;99390.22;471250;1170;113865;-61
2021/04/12 01:56:50;;;;;;;8.60;7.70;;;;;;;6.61;66.64;99388.08;471304;1170;114332;-62
2021/04/12 02:07:12;;;;;;;11.77;7.90;;;;;;;6.53;67.43;99390.25;471781;1170;114133;-62
2021/04/12 02:17:25;;;;;;;11.83;9.67;;;;;;;6.48;68.00;99393.09;471554;1171;114068;-63
2021/04/12 02:27:39;;;;;;;13.73;8.80;;;;;;;6.41;67.61;99389.09;471367;1170;114212;-64
2021/04/12 02:37:55;;;;;;;11.30;8.73;;;;;;;6.39;67.73;99376.11;471407;1170;113890;-63
2021/04/12 02:48:20;;;;;;;14.80;9.37;;;;;;;6.32;68.06;99372.15;471191;1171;114174;-63
2021/04/12 02:59:04;;;;;;;10.67;9.57;;;;;;;6.24;68.52;99377.75;471279;1170;114259;-63
2021/04/12 03:09:37;;;;;;;10.30;9.30;;;;;;;6.18;68.86;99391.08;471720;1170;114893;-63
2021/04/12 03:20:08;;;;;;;12.15;10.90;;;;;;;6.13;68.49;99383.48;471101;1171;113914;-63
2021/04/12 03:30:43;;;;;;;15.83;10.77;;;;;;;6.06;69.16;99383.86;471217;1171;113926;-62
2021/04/12 03:41:14;;;;;;;12.90;10.27;;;;;;;5.98;69.80;99384.20;471537;1170;113931;-63
2021/04/12 03:51:57;;;;;;;13.50;10.60;;;;;;;5.92;69.65;99379.27;471096;1171;115422;-63
2021/04/12 04:02:26;;;;;;;14.40;11.95;;;;;;;5.90;69.69;99384.58;470660;1171;114200;-62
2021/04/12 04:12:47;;;;;;;14.60;11.10;;;;;;;5.98;70.11;99390.24;470118;1171;115567;-62
2021/04/12 04:23:08;;;;;;;12.50;10.70;;;;;;;6.20;69.97;99388.41;471391;1171;114204;-62
2021/04/12 04:33:33;;;;;;;15.23;11.20;;;;;;;6.50;69.58;99383.42;471646;1170;115064;-62
2021/04/12 04:43:59;;;;;;;12.30;10.43;;;;;;;6.86;68.78;99390.28;471796;1170;114078;-64
2021/04/12 04:54:28;;;;;;;13.70;9.70;;;;;;;7.17;67.81;99389.60;471479;1171;114544;-63
2021/04/12 05:05:10;;;;;;;12.60;9.95;;;;;;;7.57;67.86;99397.89;471331;1171;114096;-62
2021/04/12 05:16:00;;;;;;;11.50;9.63;;;;;;;8.17;67.11;99396.30;471982;1170;115033;-64
2021/04/12 05:26:28;;;;;;;11.20;9.65;;;;;;;17.29;58.91;99388.48;471107;1171;114194;-64
2021/04/12 05:36:44;;;;;;;11.67;9.67;;;;;;;23.28;48.31;99383.20;470227;1171;114325;-63
2021/04/12 05:47:08;;;;;;;11.83;9.77;;;;;;;27.68;41.32;99388.21;471196;1171;114351;-63
2021/04/12 05:57:35;;;;;;;13.00;9.33;;;;;;;31.14;34.92;99390.02;471226;1170;114234;-63
2021/04/12 06:08:04;;;;;;;11.47;9.93;;;;;;;33.78;30.21;99376.95;471218;1171;114496;-62
2021/04/12 06:18:29;;;;;;;8.55;6.00;;;;;;;35.40;26.25;99398.72;471295;1171;114522;-63
2021/04/12 06:28:55;;;;;;;7.30;6.10;;;;;;;37.65;23.27;99405.28;471376;1171;114357;-61
2021/04/12 06:39:11;;;;;;;8.20;6.00;;;;;;;38.55;21.01;99398.81;475111;1171;114640;-62
2021/04/12 06:49:51;;;;;;;6.07;4.83;;;;;;;39.24;18.69;99395.82;470863;1171;115042;-62
2021/04/12 07:00:29;;;;;;;11.70;4.30;;;;;;;40.70;17.60;99390.78;471417;1171;114072;-63
2021/04/12 07:11:14;;;;;;;11.33;5.10;;;;;;;42.81;16.29;99391.63;471437;1170;114269;-62
2021/04/12 07:21:46;;;;;;;11.63;3.73;;;;;;;43.54;15.17;99391.11;471638;1171;115331;-64
2021/04/12 07:32:16;;;;;;;6.95;3.90;;;;;;;44.18;14.87;99396.28;471611;1170;114566;-60
2021/04/12 07:43:13;;;;;;;15.30;4.95;;;;;;;44.49;13.55;99390.46;471161;1170;114383;-62
2021/04/12 07:53:53;;;;;;;7.53;4.20;;;;;;;44.64;12.93;99389.13;471435;1171;114580;-65
2021/04/12 08:04:31;;;;;;;4.60;4.15;;;;;;;45.46;12.50;99398.23;471070;1170;114143;-65
2021/04/12 08:15:18;;;;;;;6.10;3.80;;;;;;;44.84;12.54;99405.30;471402;1170;114942;-66
2021/04/12 08:26:04;;;;;;;7.53;3.23;;;;;;;43.15;12.42;99403.91;471333;1170;114703;-60
2021/04/12 08:36:55;;;;;;;18.95;4.70;;;;;;;34.98;14.66;99411.36;470966;1171;114327;-62
2021/04/12 08:47:16;;;;;;;6.00;4.00;;;;;;;28.32;18.59;99434.13;470995;1170;115486;-61
2021/04/12 08:57:54;;;;;;;5.37;4.13;;;;;;;24.85;22.25;99437.16;455611;1170;10001801;-60
2021/04/12 09:08:39;;;;;;;7.37;5.13;;;;;;;23.97;23.48;99437.37;471582;1171;114753;-62
2021/04/12 09:19:27;;;;;;;12.70;5.30;;;;;;;22.35;25.43;99437.75;470498;1171;115558;-62
2021/04/12 09:29:52;;;;;;;9.00;4.90;;;;;;;21.72;26.78;99443.99;471092;1171;114350;-61
2021/04/12 09:40:38;;;;;;;8.63;4.77;;;;;;;21.03;28.05;99437.38;471651;1170;114401;-64
2021/04/12 09:51:29;;;;;;;20.17;7.97;;;;;;;20.62;28.78;99451.58;470701;1170;115383;-65
2021/04/12 10:02:12;;;;;;;12.40;5.75;;;;;;;20.26;29.53;99459.91;471044;1171;114170;-62
2021/04/12 10:12:30;;;;;;;11.50;5.85;;;;;;;20.12;30.22;99472.03;471541;1170;114286;-64
2021/04/12 10:22:47;;;;;;;8.15;5.05;;;;;;;20.28;30.86;99472.05;470809;1171;114471;-64
2021/04/12 10:32:57;;;;;;;7.53;6.83;;;;;;;20.14;31.13;99484.21;471617;1170;114359;-62
2021/04/12 10:43:11;;;;;;;7.37;6.57;;;;;;;19.05;32.64;99473.23;471695;1170;114544;-63
2021/04/12 10:53:45;;;;;;;15.47;7.53;;;;;;;18.96;33.52;99482.11;472070;1171;114745;-61
2021/04/12 11:03:56;;;;;;;14.75;9.45;;;;;;;18.99;33.83;99493.28;470546;1171;114484;-65
2021/04/12 11:14:08;;;;;;;18.35;14.95;;;;;;;19.32;35.37;99496.16;470612;1171;114707;-65
2021/04/12 11:24:22;;;;;;;22.25;15.90;;;;;;;18.27;37.02;99494.16;471253;1170;114417;-64
2021/04/12 11:34:33;;;;;;;28.00;16.60;;;;;;;17.95;37.83;99515.84;471713;1170;114971;-61
2021/04/12 11:44:39;;;;;;;21.00;16.40;;;;;;;16.99;39.75;99537.09;471802;1170;114357;-64
2021/04/12 11:54:55;;;;;;;19.77;15.67;;;;;;;16.78;40.58;99558.46;472138;1169;115368;-60
2021/04/12 12:05:07;;;;;;;18.93;15.77;;;;;;;15.72;42.52;99566.82;472122;1170;114398;-63
2021/04/12 12:15:20;;;;;;;18.85;15.65;;;;;;;15.94;42.57;99577.27;471257;1170;115108;-66
2021/04/12 12:25:44;;;;;;;19.13;17.23;;;;;;;15.20;43.73;99586.17;471421;1171;114604;-63
2021/04/12 12:35:58;;;;;;;18.10;16.20;;;;;;;14.76;45.34;99583.58;471457;1170;114711;-63
2021/04/12 12:46:11;;;;;;;19.37;17.00;;;;;;;14.55;45.36;99601.03;471489;1171;114828;-67
2021/04/12 12:56:22;;;;;;;21.40;18.10;;;;;;;13.84;47.12;99622.47;471220;1171;114635;-67
2021/04/12 13:06:31;;;;;;;19.75;17.65;;;;;;;13.25;47.87;99648.79;471453;1171;114634;-67
2021/04/12 13:16:37;;;;;;;19.93;17.13;;;;;;;13.00;49.13;99649.78;471413;1170;114558;-70
2021/04/12 13:26:48;;;;;;;20.80;17.55;;;;;;;12.37;50.34;99645.46;471474;1171;115421;-70
2021/04/12 13:36:58;;;;;;;16.77;15.03;;;;;;;12.21;51.31;99640.44;454577;1170;20002331;-70
2021/04/12 13:47:08;;;;;;;19.30;14.13;;;;;;;11.63;52.59;99659.25;471020;1170;115403;-73
2021/04/12 13:57:20;;;;;;;17.37;13.33;;;;;;;11.20;53.03;99681.36;471382;1170;114323;-65
2021/04/12 14:07:40;;;;;;;16.90;13.50;;;;;;;10.98;53.74;99695.88;471210;1171;115102;-63
2021/04/12 14:17:49;;;;;;;19.63;12.90;;;;;;;10.38;55.39;99703.05;471500;1169;114724;-64
2021/04/12 14:28:08;;;;;;;13.70;11.48;;;;;;;9.77;56.01;99721.55;463356;1171;10002224;-67
2021/04/12 14:38:16;;;;;;;16.93;12.33;;;;;;;9.31;57.45;99757.34;471503;1171;115212;-67
2021/04/12 14:48:25;;;;;;;20.50;14.80;;;;;;;8.89;58.56;99764.02;471588;1171;114652;-62
2021/04/12 14:58:34;;;;;;;19.65;13.10;;;;;;;8.60;58.78;99788.24;470928;1171;114316;-63
2021/04/12 15:08:42;;;;;;;22.70;12.77;;;;;;;8.28;59.36;99802.02;471066;1171;114436;-62
2021/04/12 15:18:49;;;;;;;20.57;12.67;;;;;;;8.02;59.44;99824.25;471052;1171;114384;-61
2021/04/12 15:29:14;;;;;;;17.95;13.48;;;;;;;7.70;60.46;99839.77;471413;1171;114467;-58
2021/04/12 15:39:23;;;;;;;18.50;11.73;;;;;;;7.44;60.59;99849.67;471295;1170;114357;-59
2021/04/12 15:49:33;;;;;;;19.85;12.35;;;;;;;7.24;60.65;99856.70;471746;1171;115236;-58
2021/04/12 15:59:40;;;;;;;22.17;13.73;;;;;;;7.05;61.14;99858.44;471573;1170;114891;-67
2021/04/12 16:09:57;;;;;;;18.13;14.50;;;;;;;6.69;63.18;99853.02;471366;1170;114860;-59
2021/04/12 16:20:24;;;;;;;15.70;12.60;;;;;;;6.49;62.75;99889.56;471043;1170;113997;-59
2021/04/12 16:30:35;;;;;;;15.85;11.55;;;;;;;6.38;62.36;99871.77;471030;1170;115333;-60
2021/04/12 16:40:44;;;;;;;11.50;6.95;;;;;;;6.15;63.15;99910.08;470377;1171;114239;-58
2021/04/12 16:50:49;;;;;;;8.80;6.80;;;;;;;5.75;63.26;99910.70;471607;1171;113831;-59
2021/04/12 17:00:58;;;;;;;16.75;7.40;;;;;;;5.59;63.33;99933.05;471711;1170;113744;-59
2021/04/12 17:11:02;;;;;;;12.20;5.77;;;;;;;5.41;64.13;99935.43;471388;1170;113827;-59
2021/04/12 17:21:21;;;;;;;10.83;6.10;;;;;;;5.10;64.05;99941.78;470624;1171;114197;-59
2021/04/12 17:31:31;;;;;;;5.37;4.40;;;;;;;4.94;64.34;99975.30;471268;1170;114453;-59
2021/04/12 17:41:45;;;;;;;6.50;4.25;;;;;;;4.85;64.53;99981.67;469996;1171;114296;-59
2021/04/12 17:51:53;;;;;;;6.30;3.55;;;;;;;4.71;64.18;100013.35;471393;1170;114303;-60
2021/04/12 18:01:59;;;;;;;7.00;4.83;;;;;;;4.58;64.75;100018.09;471835;1171;113824;-60
2021/04/12 18:12:13;;;;;;;7.83;5.13;;;;;;;4.49;64.61;100037.45;471380;1171;114193;-60
2021/04/12 18:22:21;;;;;;;6.00;4.07;;;;;;;4.36;65.03;100036.14;471559;1170;114263;-60
2021/04/12 18:32:29;;;;;;;6.30;3.45;;;;;;;4.24;65.97;100041.72;471086;1171;113824;-60
2021/04/12 18:42:36;;;;;;;;;;;;;;;4.15;65.90;100048.03;471597;1171;113887;-60
2021/04/12 18:52:42;;;;;;;6.65;4.80;;;;;;;4.12;66.10;100056.80;471510;1170;100326;-60
2021/04/12 19:03:13;;;;;;;8.65;4.10;;;;;;;4.12;66.06;100066.32;471667;1171;114557;-60
2021/04/12 19:13:36;;;;;;;8.20;3.30;;;;;;;4.13;66.09;100068.02;471310;1171;114677;-62
2021/04/12 19:23:53;;;;;;;6.70;3.65;;;;;;;4.01;66.27;100075.28;472155;1171;113919;-60
2021/04/12 19:34:13;;;;;;;6.37;3.77;;;;;;;3.89;67.19;100086.89;471619;1171;114331;-60
2021/04/12 19:44:27;;;;;;;5.05;4.30;;;;;;;3.92;67.45;100096.33;471000;1171;113903;-60
2021/04/12 19:54:37;;;;;;;6.33;3.87;;;;;;;3.91;67.53;100100.69;471764;1171;114548;-63
2021/04/12 20:04:43;;;;;;;4.80;4.30;;;;;;;3.81;68.14;100104.44;470298;1173;114397;-65
2021/04/12 20:14:59;;;;;;;5.35;4.85;;;;;;;3.67;69.49;100112.60;470325;1171;114164;-64
2021/04/12 20:25:20;;;;;;;7.10;5.80;;;;;;;3.43;70.17;100112.36;469959;1171;114548;-67
2021/04/12 20:35:31;;;;;;;4.53;4.10;;;;;;;3.23;71.13;100107.69;463737;1170;10001604;-65
2021/04/12 20:45:54;;;;;;;4.10;3.70;;;;;;;3.01;71.24;100121.20;471412;1171;114445;-65
2021/04/12 20:56:05;;;;;;;3.35;2.80;;;;;;;2.64;72.11;100146.23;471523;1170;114316;-65
2021/04/12 21:06:12;;;;;;;4.73;4.33;;;;;;;2.57;72.47;100147.28;471189;1170;114565;-65
2021/04/12 21:16:20;;;;;;;3.67;3.33;;;;;;;2.56;72.86;100158.55;471826;1170;114863;-66
2021/04/12 21:26:28;;;;;;;4.43;3.77;;;;;;;2.48;72.99;100174.27;471494;1170;114489;-64
2021/04/12 21:36:37;;;;;;;6.15;4.30;;;;;;;2.52;72.88;100180.22;471562;1169;114503;-65
2021/04/12 21:46:50;;;;;;;4.65;4.15;;;;;;;2.53;73.25;100181.92;471178;1171;113782;-65
2021/04/12 21:57:05;;;;;;;6.00;5.40;;;;;;;2.52;72.72;100180.22;471994;1171;114137;-69
2021/04/12 22:07:21;;;;;;;5.75;4.50;;;;;;;2.50;72.13;100195.83;471748;1170;114237;-65
2021/04/12 22:17:43;;;;;;;3.93;3.30;;;;;;;2.46;71.73;100198.51;471456;1169;114023;-68
2021/04/12 22:27:54;;;;;;;5.83;3.10;;;;;;;2.56;71.36;100205.22;471046;1171;114313;-66
2021/04/12 22:49:00;;;;;;;2.90;2.67;;;;;;;2.44;71.29;100201.13;471377;1171;114034;-67
2021/04/12 22:59:13;;;;;;;4.15;3.35;;;;;;;2.36;71.27;100197.83;470450;1172;114284;-68
2021/04/12 23:09:22;;;;;;;3.75;2.75;;;;;;;2.32;71.17;100196.19;471554;1170;114182;-65
2021/04/12 23:19:32;;;;;;;5.40;2.80;;;;;;;2.31;71.13;100184.13;469793;1171;114057;-65
2021/04/12 23:29:41;;;;;;;5.13;2.60;;;;;;;2.29;71.15;100191.91;471038;1170;114617;-65
2021/04/12 23:39:45;;;;;;;2.40;2.20;;;;;;;2.20;71.18;100198.14;471068;1171;114478;-61
2021/04/12 23:49:49;;;;;;;5.03;3.03;;;;;;;2.14;71.36;100205.19;470533;1171;114028;-60
2021/04/12 23:59:53;;;;;;;3.75;2.30;;;;;;;2.06;71.88;100206.17;470638;1171;114703;-62
